Valiant — NA35 — position and weather

sailwx.info

Track history (hours):
 
Tides and Currents Weather Stations Pressure Air Temp Water Temp Dewpoint Dewpoint Depression Visibility Wind Speed Wind Dir Waves Ship Positions

Valiant

Last reported at 2014-Aug-12 13:08 UTC. Time now 2014-Aug-29 18:27 UTC.
Position N 39°46' W 073°29'.
Warning: this ship's position is 17 days out of date.

Length 14 m.

Type: Sailing vessel. MMSI: 369970076.

Date/timePositionNaut miles runAvg speedWind from/ knotsBaromVisibWave heightAir tempDewpointWater temp
2014-Aug-12 13:08N 39°46' W 073°29'12 7.4
2014-Aug-12 11:32N 39°55' W 073°18'7 7.6
2014-Aug-12 10:33N 40°00' W 073°12'8 7.6
2014-Aug-12 09:32N 40°06' W 073°05'6 6.6
2014-Aug-12 08:33N 40°11' W 072°60'6 5.9
2014-Aug-12 07:31N 40°17' W 072°56'7 7.7
2014-Aug-12 06:33N 40°23' W 072°50'7 7.2
2014-Aug-12 05:33N 40°27' W 072°43'8 7.5
2014-Aug-12 04:33N 40°32' W 072°36'7 6.8
2014-Aug-12 03:32N 40°37' W 072°29'6 6.3
2014-Aug-12 02:33N 40°42' W 072°23'6 6.3
2014-Aug-12 01:33N 40°46' W 072°18'6 6.4
2014-Aug-12 00:33N 40°50' W 072°11'6 5.5
2014-Aug-11 23:33N 40°52' W 072°04'6 5.6
2014-Aug-11 22:33N 40°55' W 071°58'6 6.3
2014-Aug-11 21:33N 40°58' W 071°51'7 6.7
2014-Aug-11 20:33N 41°01' W 071°43'7 6.9
2014-Aug-11 19:33N 41°05' W 071°36'6 6.2
2014-Aug-11 18:33N 41°09' W 071°29'5 5.3
2014-Aug-11 17:33N 41°14' W 071°27'5 5.2
2014-Aug-11 16:33N 41°19' W 071°25'6 5.8
2014-Aug-11 15:33N 41°25' W 071°24'5 5.4
2014-Aug-11 14:33N 41°30' W 071°21'1 1.1
2014-Aug-11 13:33N 41°30' W 071°20'0 0.0
2014-Aug-11 12:33N 41°30' W 071°20'  
2014-Aug-07 23:21N 41°29' W 071°19'5 1.1
2014-Aug-07 19:05N 41°26' W 071°23'3 5.9
2014-Aug-07 18:33N 41°23' W 071°24'4 4.5
2014-Aug-07 17:33N 41°20' W 071°29'5 4.6
2014-Aug-07 16:33N 41°17' W 071°34'6 5.7
2014-Aug-07 15:33N 41°17' W 071°42'4 4.3
2014-Aug-07 14:33N 41°17' W 071°47'4 3.6
2014-Aug-07 13:33N 41°15' W 071°52'3 3.5
2014-Aug-07 12:33N 41°14' W 071°56'3 3.4
2014-Aug-07 11:33N 41°14' W 072°01'4 4.1
2014-Aug-07 10:33N 41°14' W 072°06'2 2.4
2014-Aug-07 09:33N 41°15' W 072°09'4 3.8
2014-Aug-07 08:33N 41°14' W 072°14'5 5.0
2014-Aug-07 07:33N 41°12' W 072°20'5 4.7
2014-Aug-07 06:33N 41°11' W 072°26'6 6.0
2014-Aug-07 05:33N 41°10' W 072°34'7 6.9
2014-Aug-07 04:33N 41°09' W 072°43'6 6.0
2014-Aug-07 03:33N 41°08' W 072°51'6 5.7
2014-Aug-07 02:33N 41°07' W 072°59'5 4.8
2014-Aug-07 01:33N 41°06' W 073°05'5 4.6
2014-Aug-07 00:33N 41°04' W 073°10'45 6.4
2014-Aug-06 17:32N 40°42' W 074°02'57 5.1
2014-Aug-06 06:24N 39°45' W 074°01'6 6.3
2014-Aug-06 05:28N 39°40' W 074°04'7 6.6
2014-Aug-06 04:28N 39°34' W 074°09'8 6.4
2014-Aug-06 03:12N 39°27' W 074°14'4 6.1
2014-Aug-06 02:33N 39°24' W 074°17'6 6.0
2014-Aug-06 01:33N 39°20' W 074°23'6 6.2
2014-Aug-06 00:33N 39°16' W 074°29'  
Track history (hours):
 
Tides and Currents Weather Stations Pressure Air Temp Water Temp Dewpoint Dewpoint Depression Visibility Wind Speed Wind Dir Waves Ship Positions

Valiant

Last reported at 2014-Aug-12 13:08 UTC. Time now 2014-Aug-29 18:27 UTC.
Position N 39°46' W 073°29'.
Warning: this ship's position is 17 days out of date.

Length 14 m.

Type: Sailing vessel. MMSI: 369970076.

Date/timePositionNaut miles runAvg speedWind from/ knotsBaromVisibWave heightAir tempDewpointWater temp
2014-Aug-12 13:08N 39°46' W 073°29'12 7.4
2014-Aug-12 11:32N 39°55' W 073°18'7 7.6
2014-Aug-12 10:33N 40°00' W 073°12'8 7.6
2014-Aug-12 09:32N 40°06' W 073°05'6 6.6
2014-Aug-12 08:33N 40°11' W 072°60'6 5.9
2014-Aug-12 07:31N 40°17' W 072°56'7 7.7
2014-Aug-12 06:33N 40°23' W 072°50'7 7.2
2014-Aug-12 05:33N 40°27' W 072°43'8 7.5
2014-Aug-12 04:33N 40°32' W 072°36'7 6.8
2014-Aug-12 03:32N 40°37' W 072°29'6 6.3
2014-Aug-12 02:33N 40°42' W 072°23'6 6.3
2014-Aug-12 01:33N 40°46' W 072°18'6 6.4
2014-Aug-12 00:33N 40°50' W 072°11'6 5.5
2014-Aug-11 23:33N 40°52' W 072°04'6 5.6
2014-Aug-11 22:33N 40°55' W 071°58'6 6.3
2014-Aug-11 21:33N 40°58' W 071°51'7 6.7
2014-Aug-11 20:33N 41°01' W 071°43'7 6.9
2014-Aug-11 19:33N 41°05' W 071°36'6 6.2
2014-Aug-11 18:33N 41°09' W 071°29'5 5.3
2014-Aug-11 17:33N 41°14' W 071°27'5 5.2
2014-Aug-11 16:33N 41°19' W 071°25'6 5.8
2014-Aug-11 15:33N 41°25' W 071°24'5 5.4
2014-Aug-11 14:33N 41°30' W 071°21'1 1.1
2014-Aug-11 13:33N 41°30' W 071°20'0 0.0
2014-Aug-11 12:33N 41°30' W 071°20'  
2014-Aug-07 23:21N 41°29' W 071°19'5 1.1
2014-Aug-07 19:05N 41°26' W 071°23'3 5.9
2014-Aug-07 18:33N 41°23' W 071°24'4 4.5
2014-Aug-07 17:33N 41°20' W 071°29'5 4.6
2014-Aug-07 16:33N 41°17' W 071°34'6 5.7
2014-Aug-07 15:33N 41°17' W 071°42'4 4.3
2014-Aug-07 14:33N 41°17' W 071°47'4 3.6
2014-Aug-07 13:33N 41°15' W 071°52'3 3.5
2014-Aug-07 12:33N 41°14' W 071°56'3 3.4
2014-Aug-07 11:33N 41°14' W 072°01'4 4.1
2014-Aug-07 10:33N 41°14' W 072°06'2 2.4
2014-Aug-07 09:33N 41°15' W 072°09'4 3.8
2014-Aug-07 08:33N 41°14' W 072°14'5 5.0
2014-Aug-07 07:33N 41°12' W 072°20'5 4.7
2014-Aug-07 06:33N 41°11' W 072°26'6 6.0
2014-Aug-07 05:33N 41°10' W 072°34'7 6.9
2014-Aug-07 04:33N 41°09' W 072°43'6 6.0
2014-Aug-07 03:33N 41°08' W 072°51'6 5.7
2014-Aug-07 02:33N 41°07' W 072°59'5 4.8
2014-Aug-07 01:33N 41°06' W 073°05'5 4.6
2014-Aug-07 00:33N 41°04' W 073°10'45 6.4
2014-Aug-06 17:32N 40°42' W 074°02'57 5.1
2014-Aug-06 06:24N 39°45' W 074°01'6 6.3
2014-Aug-06 05:28N 39°40' W 074°04'7 6.6
2014-Aug-06 04:28N 39°34' W 074°09'8 6.4
2014-Aug-06 03:12N 39°27' W 074°14'4 6.1
2014-Aug-06 02:33N 39°24' W 074°17'6 6.0
2014-Aug-06 01:33N 39°20' W 074°23'6 6.2
2014-Aug-06 00:33N 39°16' W 074°29'  

Dump ship's entire track history